createdAt,value
2018-04-08T00:00:53.430Z,951.49
2018-04-08T00:01:53.445Z,951.50
2018-04-08T00:02:53.450Z,951.50
2018-04-08T00:03:53.458Z,951.49
2018-04-08T00:04:53.467Z,951.46
2018-04-08T00:05:53.478Z,951.45
2018-04-08T00:06:53.514Z,951.41
2018-04-08T00:07:53.507Z,951.43
2018-04-08T00:08:53.505Z,951.43
2018-04-08T00:09:53.520Z,951.43
2018-04-08T00:10:53.525Z,951.40
2018-04-08T00:11:53.534Z,951.40
2018-04-08T00:12:53.543Z,951.39
2018-04-08T00:13:53.559Z,951.38
2018-04-08T00:14:53.579Z,951.39
2018-04-08T00:15:53.574Z,951.38
2018-04-08T00:16:53.587Z,951.41
2018-04-08T00:17:53.592Z,951.41
2018-04-08T00:18:53.602Z,951.40
2018-04-08T00:19:53.620Z,951.39
2018-04-08T00:20:53.622Z,951.38
2018-04-08T00:21:53.633Z,951.37
2018-04-08T00:22:53.640Z,951.34
2018-04-08T00:23:53.651Z,951.35
2018-04-08T00:24:53.657Z,951.34
2018-04-08T00:25:53.670Z,951.35
2018-04-08T00:26:53.688Z,951.33
2018-04-08T00:27:53.687Z,951.33
2018-04-08T00:28:53.699Z,951.30
2018-04-08T00:29:53.706Z,951.30
2018-04-08T00:30:53.717Z,951.28
2018-04-08T00:31:53.726Z,951.28
2018-04-08T00:32:53.748Z,951.29
2018-04-08T00:33:53.744Z,951.24
2018-04-08T00:34:53.755Z,951.23
2018-04-08T00:35:53.763Z,951.25
2018-04-08T00:36:53.773Z,951.23
2018-04-08T00:37:53.783Z,951.21
2018-04-08T00:38:53.793Z,951.21
2018-04-08T00:39:53.804Z,951.23
2018-04-08T00:40:53.858Z,951.24
2018-04-08T00:41:53.820Z,951.25
2018-04-08T00:42:53.827Z,951.29
2018-04-08T00:43:53.837Z,951.25
2018-04-08T00:44:53.857Z,951.26
2018-04-08T00:45:53.857Z,951.22
2018-04-08T00:46:53.865Z,951.21
2018-04-08T00:47:53.877Z,951.18
2018-04-08T00:48:53.890Z,951.14
2018-04-08T00:49:53.894Z,951.10
2018-04-08T00:50:53.919Z,951.14
2018-04-08T00:51:53.912Z,951.10
2018-04-08T00:52:53.925Z,951.09
2018-04-08T00:53:53.929Z,951.06
2018-04-08T00:54:53.940Z,951.04
2018-04-08T00:55:53.950Z,951.06
2018-04-08T00:56:53.966Z,951.04
2018-04-08T00:57:53.968Z,951.03
2018-04-08T00:58:53.986Z,951.02
2018-04-08T00:59:53.986Z,951.05
2018-04-08T01:00:53.997Z,951.02
2018-04-08T01:01:54.009Z,951.01
2018-04-08T01:02:54.022Z,951.01
2018-04-08T01:03:54.021Z,951.04
2018-04-08T01:04:54.033Z,951.01
2018-04-08T01:05:54.046Z,951.05
2018-04-08T01:06:54.051Z,951.01
2018-04-08T01:07:54.062Z,950.99
2018-04-08T01:08:54.080Z,951.05
2018-04-08T01:09:54.081Z,951.02
2018-04-08T01:10:54.086Z,951.04
2018-04-08T01:11:54.095Z,950.97
2018-04-08T01:12:54.104Z,951.00
2018-04-08T01:13:54.113Z,950.99
2018-04-08T01:14:54.131Z,950.97
2018-04-08T01:15:54.135Z,951.00
2018-04-08T01:16:54.147Z,951.00
2018-04-08T01:17:54.150Z,950.98
2018-04-08T01:18:54.158Z,951.01
2018-04-08T01:19:54.168Z,950.98
2018-04-08T01:20:54.184Z,950.99
2018-04-08T01:21:54.187Z,951.00
2018-04-08T01:22:54.198Z,950.97
2018-04-08T01:23:54.206Z,950.97
2018-04-08T01:24:54.219Z,950.97
2018-04-08T01:25:54.224Z,950.97
2018-04-08T01:26:54.244Z,950.95
2018-04-08T01:27:54.245Z,950.93
2018-04-08T01:28:54.250Z,950.92
2018-04-08T01:29:54.260Z,950.93
2018-04-08T01:30:54.272Z,950.90
2018-04-08T01:31:54.298Z,950.89
2018-04-08T01:32:54.293Z,950.89
2018-04-08T01:33:54.295Z,950.90
2018-04-08T01:34:54.303Z,950.90
2018-04-08T01:35:54.318Z,950.87
2018-04-08T01:36:54.326Z,950.89
2018-04-08T01:37:54.340Z,950.87
2018-04-08T01:38:54.339Z,950.87
2018-04-08T01:39:54.350Z,950.90
2018-04-08T01:40:54.357Z,950.91
2018-04-08T01:41:54.371Z,950.89
2018-04-08T01:42:54.378Z,950.87
2018-04-08T01:43:54.394Z,950.86
2018-04-08T01:44:54.397Z,950.86
2018-04-08T01:45:54.403Z,950.86
2018-04-08T01:46:54.416Z,950.84
2018-04-08T01:47:54.422Z,950.85
2018-04-08T01:48:54.430Z,950.86
2018-04-08T01:49:54.444Z,950.84
2018-04-08T01:50:54.450Z,950.82
2018-04-08T01:51:54.462Z,950.85
2018-04-08T01:52:54.466Z,950.84
2018-04-08T01:53:54.474Z,950.78
2018-04-08T01:54:54.488Z,950.75
2018-04-08T01:55:54.498Z,950.78
2018-04-08T01:56:54.502Z,950.74
2018-04-08T01:57:54.512Z,950.78
2018-04-08T01:58:54.524Z,950.77
2018-04-08T01:59:54.531Z,950.75
2018-04-08T02:00:54.538Z,950.77
2018-04-08T02:01:54.553Z,950.75
2018-04-08T02:02:54.555Z,950.72
2018-04-08T02:03:54.563Z,950.73
2018-04-08T02:04:54.576Z,950.71
2018-04-08T02:05:54.585Z,950.73
2018-04-08T02:06:54.589Z,950.69
2018-04-08T02:07:54.604Z,950.67
2018-04-08T02:08:54.609Z,950.69
2018-04-08T02:09:54.617Z,950.72
2018-04-08T02:10:54.625Z,950.71
2018-04-08T02:11:54.634Z,950.68
2018-04-08T02:12:54.645Z,950.67
2018-04-08T02:13:54.660Z,950.68
2018-04-08T02:14:54.682Z,950.65
2018-04-08T02:15:54.670Z,950.62
2018-04-08T02:16:54.678Z,950.63
2018-04-08T02:17:54.689Z,950.66
2018-04-08T02:18:54.696Z,950.64
2018-04-08T02:19:54.710Z,950.65
2018-04-08T02:20:54.713Z,950.60
2018-04-08T02:21:54.725Z,950.59
2018-04-08T02:22:54.732Z,950.66
2018-04-08T02:23:54.739Z,950.66
2018-04-08T02:24:54.748Z,950.64
2018-04-08T02:25:54.765Z,950.61
2018-04-08T02:26:54.767Z,950.63
2018-04-08T02:27:54.774Z,950.61
2018-04-08T02:28:54.789Z,950.56
2018-04-08T02:29:54.793Z,950.61
2018-04-08T02:30:54.802Z,950.61
2018-04-08T02:31:54.816Z,950.63
2018-04-08T02:32:54.818Z,950.64
2018-04-08T02:33:54.832Z,950.68
2018-04-08T02:34:54.835Z,950.68
2018-04-08T02:35:54.843Z,950.69
2018-04-08T02:36:54.855Z,950.69
2018-04-08T02:37:54.869Z,950.69
2018-04-08T02:38:54.872Z,950.70
2018-04-08T02:39:54.882Z,950.71
2018-04-08T02:40:54.886Z,950.71
2018-04-08T02:41:54.898Z,950.71
2018-04-08T02:42:54.903Z,950.68
2018-04-08T02:43:54.920Z,950.70
2018-04-08T02:44:54.921Z,950.70
2018-04-08T02:45:54.932Z,950.70
2018-04-08T02:46:54.936Z,950.70
2018-04-08T02:47:54.947Z,950.70
2018-04-08T02:48:54.962Z,950.71
2018-04-08T02:49:54.967Z,950.72
2018-04-08T02:50:54.974Z,950.69
2018-04-08T02:51:54.980Z,950.71
2018-04-08T02:52:54.994Z,950.69
2018-04-08T02:53:55.003Z,950.67
2018-04-08T02:54:55.009Z,950.69
2018-04-08T02:55:55.027Z,950.69
2018-04-08T02:56:55.025Z,950.70
2018-04-08T02:57:55.036Z,950.69
2018-04-08T02:58:55.040Z,950.64
2018-04-08T02:59:55.049Z,950.62
2018-04-08T03:00:55.057Z,950.65
2018-04-08T03:01:55.089Z,950.63
2018-04-08T03:02:55.076Z,950.64
2018-04-08T03:03:55.083Z,950.68
2018-04-08T03:04:55.091Z,950.67
2018-04-08T03:05:55.100Z,950.66
2018-04-08T03:06:55.115Z,950.67
2018-04-08T03:07:55.129Z,950.66
2018-04-08T03:08:55.127Z,950.66
2018-04-08T03:09:55.133Z,950.66
2018-04-08T03:10:55.146Z,950.64
2018-04-08T03:11:55.150Z,950.67
2018-04-08T03:12:55.158Z,950.69
2018-04-08T03:13:55.173Z,950.71
2018-04-08T03:14:55.173Z,950.68
2018-04-08T03:15:55.184Z,950.71
2018-04-08T03:16:55.195Z,950.66
2018-04-08T03:17:55.204Z,950.68
2018-04-08T03:18:55.208Z,950.67
2018-04-08T03:19:55.225Z,950.65
2018-04-08T03:20:55.226Z,950.68
2018-04-08T03:21:55.233Z,950.67
2018-04-08T03:22:55.243Z,950.61
2018-04-08T03:23:55.250Z,950.63
2018-04-08T03:24:55.259Z,950.61
2018-04-08T03:25:55.280Z,950.63
2018-04-08T03:26:55.276Z,950.61
2018-04-08T03:27:55.284Z,950.62
2018-04-08T03:28:55.293Z,950.59
2018-04-08T03:29:55.303Z,950.54
2018-04-08T03:30:55.313Z,950.53
2018-04-08T03:31:55.322Z,950.56
2018-04-08T03:32:55.329Z,950.57
2018-04-08T03:33:55.337Z,950.57
2018-04-08T03:34:55.343Z,950.54
2018-04-08T03:35:55.353Z,950.55
2018-04-08T03:36:55.366Z,950.57
2018-04-08T03:37:55.369Z,950.54
2018-04-08T03:38:55.374Z,950.57
2018-04-08T03:39:55.385Z,950.56
2018-04-08T03:40:55.391Z,950.59
2018-04-08T03:41:55.401Z,950.57
2018-04-08T03:42:55.417Z,950.53
2018-04-08T03:43:55.426Z,950.54
2018-04-08T03:44:55.426Z,950.51
2018-04-08T03:45:55.433Z,950.50
2018-04-08T03:46:55.445Z,950.47
2018-04-08T03:47:55.451Z,950.48
2018-04-08T03:48:55.484Z,950.47
2018-04-08T03:49:55.467Z,950.46
2018-04-08T03:50:55.476Z,950.46
2018-04-08T03:51:55.481Z,950.49
2018-04-08T03:52:55.491Z,950.50
2018-04-08T03:53:55.498Z,950.48
2018-04-08T03:54:55.511Z,950.46
2018-04-08T03:55:55.515Z,950.51
2018-04-08T03:56:55.523Z,950.47
2018-04-08T03:57:55.563Z,950.54
2018-04-08T03:58:55.539Z,950.51
2018-04-08T03:59:55.547Z,950.52
2018-04-08T04:00:55.567Z,950.52
2018-04-08T04:01:55.565Z,950.53
2018-04-08T04:02:55.573Z,950.49
2018-04-08T04:03:55.582Z,950.49
2018-04-08T04:04:55.588Z,950.49
2018-04-08T04:05:55.597Z,950.45
2018-04-08T04:06:55.605Z,950.45
2018-04-08T04:07:55.625Z,950.46
2018-04-08T04:08:55.621Z,950.40
2018-04-08T04:09:55.628Z,950.40
2018-04-08T04:10:55.637Z,950.39
2018-04-08T04:11:55.644Z,950.42
2018-04-08T04:12:55.653Z,950.43
2018-04-08T04:13:55.665Z,950.43
2018-04-08T04:14:55.669Z,950.41
2018-04-08T04:15:55.676Z,950.41
2018-04-08T04:16:55.685Z,950.43
2018-04-08T04:17:55.695Z,950.43
2018-04-08T04:18:55.706Z,950.41
2018-04-08T04:19:55.718Z,950.43
2018-04-08T04:20:55.716Z,950.39
2018-04-08T04:21:55.731Z,950.41
2018-04-08T04:22:55.739Z,950.39
2018-04-08T04:23:55.744Z,950.41
2018-04-08T04:24:55.750Z,950.40
2018-04-08T04:25:55.767Z,950.40
2018-04-08T04:26:55.766Z,950.43
2018-04-08T04:27:55.776Z,950.44
2018-04-08T04:28:55.780Z,950.45
2018-04-08T04:29:55.790Z,950.45
2018-04-08T04:30:55.800Z,950.47
2018-04-08T04:31:55.817Z,950.41
2018-04-08T04:32:55.816Z,950.39
2018-04-08T04:33:55.823Z,950.45
2018-04-08T04:34:55.832Z,950.43
2018-04-08T04:35:55.857Z,950.40
2018-04-08T04:36:55.844Z,950.43
2018-04-08T04:37:55.866Z,950.39
2018-04-08T04:38:55.863Z,950.42
2018-04-08T04:39:55.872Z,950.40
2018-04-08T04:40:55.881Z,950.38
2018-04-08T04:41:55.889Z,950.39
2018-04-08T04:42:55.892Z,950.41
2018-04-08T04:43:55.907Z,950.38
2018-04-08T04:44:55.910Z,950.39
2018-04-08T04:45:55.917Z,950.39
2018-04-08T04:46:55.925Z,950.33
2018-04-08T04:47:55.933Z,950.35
2018-04-08T04:48:55.943Z,950.36
2018-04-08T04:49:55.957Z,950.37
2018-04-08T04:50:55.959Z,950.38
2018-04-08T04:51:55.967Z,950.36
2018-04-08T04:52:55.973Z,950.40
2018-04-08T04:53:55.983Z,950.33
2018-04-08T04:54:55.989Z,950.36
2018-04-08T04:55:56.001Z,950.41
2018-04-08T04:56:56.005Z,950.38
2018-04-08T04:57:56.017Z,950.42
2018-04-08T04:58:56.021Z,950.37
2018-04-08T04:59:56.031Z,950.38
2018-04-08T05:00:56.038Z,950.36
2018-04-08T05:01:56.052Z,950.38
2018-04-08T05:02:56.055Z,950.38
2018-04-08T05:03:56.062Z,950.35
2018-04-08T05:04:56.069Z,950.36
2018-04-08T05:05:56.080Z,950.35
2018-04-08T05:06:56.089Z,950.39
2018-04-08T05:07:56.092Z,950.40
2018-04-08T05:08:56.113Z,950.40
2018-04-08T05:09:56.108Z,950.38
2018-04-08T05:10:56.120Z,950.39
2018-04-08T05:11:56.125Z,950.42
2018-04-08T05:12:56.131Z,950.45
2018-04-08T05:13:56.175Z,950.43
2018-04-08T05:14:56.153Z,950.42
2018-04-08T05:15:56.159Z,950.41
2018-04-08T05:16:56.165Z,950.40
2018-04-08T05:17:56.171Z,950.42
2018-04-08T05:18:56.178Z,950.41
2018-04-08T05:19:56.188Z,950.42
2018-04-08T05:20:56.200Z,950.41
2018-04-08T05:21:56.217Z,950.44
2018-04-08T05:22:56.213Z,950.42
2018-04-08T05:23:56.219Z,950.43
2018-04-08T05:24:56.227Z,950.46
2018-04-08T05:25:56.234Z,950.46
2018-04-08T05:26:56.240Z,950.47
2018-04-08T05:27:56.257Z,950.47
2018-04-08T05:28:56.264Z,950.44
2018-04-08T05:29:56.266Z,950.45
2018-04-08T05:30:56.276Z,950.42
2018-04-08T05:31:56.284Z,950.44
2018-04-08T05:32:56.291Z,950.47
2018-04-08T05:33:56.298Z,950.47
2018-04-08T05:34:56.321Z,950.50
2018-04-08T05:35:56.312Z,950.46
2018-04-08T05:36:56.323Z,950.46
2018-04-08T05:37:56.331Z,950.45
2018-04-08T05:38:56.339Z,950.47
2018-04-08T05:39:56.347Z,950.48
2018-04-08T05:40:56.395Z,950.48
2018-04-08T05:41:56.362Z,950.41
2018-04-08T05:42:56.369Z,950.41
2018-04-08T05:43:56.381Z,950.43
2018-04-08T05:44:56.386Z,950.43
2018-04-08T05:45:56.403Z,950.43
2018-04-08T05:46:56.405Z,950.43
2018-04-08T05:47:56.407Z,950.44
2018-04-08T05:48:56.420Z,950.48
2018-04-08T05:49:56.425Z,950.46
2018-04-08T05:50:56.430Z,950.48
2018-04-08T05:51:56.447Z,950.47
2018-04-08T05:52:56.447Z,950.46
2018-04-08T05:53:56.456Z,950.46
2018-04-08T05:54:56.462Z,950.44
2018-04-08T05:55:56.472Z,950.47
2018-04-08T05:56:56.481Z,950.49
2018-04-08T05:57:56.499Z,950.49
2018-04-08T05:58:56.494Z,950.45
2018-04-08T05:59:56.502Z,950.48
2018-04-08T06:00:56.514Z,950.47
2018-04-08T06:01:56.523Z,950.48
2018-04-08T06:02:56.528Z,950.53
2018-04-08T06:03:56.540Z,950.54
2018-04-08T06:04:56.545Z,950.50
2018-04-08T06:05:56.553Z,950.53
2018-04-08T06:06:56.558Z,950.46
2018-04-08T06:07:56.568Z,950.50
2018-04-08T06:08:56.577Z,950.52
2018-04-08T06:09:56.591Z,950.48
2018-04-08T06:10:56.592Z,950.51
2018-04-08T06:11:56.602Z,950.51
2018-04-08T06:12:56.613Z,950.53
2018-04-08T06:13:56.618Z,950.51
2018-04-08T06:14:56.625Z,950.53
2018-04-08T06:15:56.641Z,950.50
2018-04-08T06:16:56.643Z,950.52
2018-04-08T06:17:56.650Z,950.56
2018-04-08T06:18:56.657Z,950.54
2018-04-08T06:19:56.665Z,950.57
2018-04-08T06:20:56.676Z,950.60
2018-04-08T06:21:56.692Z,950.66
2018-04-08T06:22:56.688Z,950.64
2018-04-08T06:23:56.720Z,950.65
2018-04-08T06:24:56.727Z,950.63
2018-04-08T06:25:56.716Z,950.63
2018-04-08T06:26:56.726Z,950.60
2018-04-08T06:27:56.740Z,950.61
2018-04-08T06:28:56.742Z,950.60
2018-04-08T06:29:56.751Z,950.62
2018-04-08T06:30:56.758Z,950.61
2018-04-08T06:31:56.768Z,950.58
2018-04-08T06:32:56.774Z,950.59
2018-04-08T06:33:56.790Z,950.60
2018-04-08T06:34:56.789Z,950.60
2018-04-08T06:35:56.797Z,950.63
2018-04-08T06:36:56.807Z,950.60
2018-04-08T06:37:56.819Z,950.56
2018-04-08T06:38:56.834Z,950.58
2018-04-08T06:39:56.837Z,950.58
2018-04-08T06:40:56.840Z,950.58
2018-04-08T06:41:56.849Z,950.60
2018-04-08T06:42:56.856Z,950.58
2018-04-08T06:43:56.865Z,950.56
2018-04-08T06:44:56.874Z,950.58
2018-04-08T06:45:56.891Z,950.58
2018-04-08T06:46:56.890Z,950.57
2018-04-08T06:47:56.899Z,950.59
2018-04-08T06:48:56.912Z,950.56
2018-04-08T06:49:56.922Z,950.55
2018-04-08T06:50:56.924Z,950.55
2018-04-08T06:51:56.946Z,950.55
2018-04-08T06:52:56.945Z,950.51
2018-04-08T06:53:56.953Z,950.52
2018-04-08T06:54:56.964Z,950.56
2018-04-08T06:55:56.969Z,950.54
2018-04-08T06:56:56.978Z,950.52
2018-04-08T06:57:56.986Z,950.53
2018-04-08T06:58:57.002Z,950.51
2018-04-08T06:59:57.003Z,950.54
2018-04-08T07:00:57.015Z,950.55
2018-04-08T07:01:57.021Z,950.52
2018-04-08T07:02:57.028Z,950.56
2018-04-08T07:03:57.036Z,950.53
2018-04-08T07:04:57.055Z,950.52
2018-04-08T07:05:57.056Z,950.54
2018-04-08T07:06:57.061Z,950.55
2018-04-08T07:07:57.075Z,950.51
2018-04-08T07:08:57.084Z,950.53
2018-04-08T07:09:57.093Z,950.57
2018-04-08T07:10:57.110Z,950.57
2018-04-08T07:11:57.117Z,950.58
2018-04-08T07:12:57.119Z,950.55
2018-04-08T07:13:57.125Z,950.58
2018-04-08T07:14:57.135Z,950.58
2018-04-08T07:15:57.143Z,950.56
2018-04-08T07:16:57.165Z,950.61
2018-04-08T07:17:57.163Z,950.55
2018-04-08T07:18:57.168Z,950.53
2018-04-08T07:19:57.176Z,950.53
2018-04-08T07:20:57.187Z,950.54
2018-04-08T07:21:57.212Z,950.53
2018-04-08T07:22:57.216Z,950.54
2018-04-08T07:23:57.214Z,950.57
2018-04-08T07:24:57.222Z,950.55
2018-04-08T07:25:57.236Z,950.57
2018-04-08T07:26:57.242Z,950.57
2018-04-08T07:27:57.253Z,950.53
2018-04-08T07:28:57.271Z,950.57
2018-04-08T07:29:57.269Z,950.59
2018-04-08T07:30:57.278Z,950.55
2018-04-08T07:31:57.288Z,950.56
2018-04-08T07:32:57.296Z,950.55
2018-04-08T07:33:57.304Z,950.56
2018-04-08T07:34:57.312Z,950.61
2018-04-08T07:35:57.332Z,950.57
2018-04-08T07:36:57.332Z,950.54
2018-04-08T07:37:57.340Z,950.55
2018-04-08T07:38:57.350Z,950.56
2018-04-08T07:39:57.360Z,950.55
2018-04-08T07:40:57.372Z,950.55
2018-04-08T07:41:57.386Z,950.55
2018-04-08T07:42:57.390Z,950.53
2018-04-08T07:43:57.397Z,950.54
2018-04-08T07:44:57.479Z,950.52
2018-04-08T07:45:57.415Z,950.51
2018-04-08T07:46:57.424Z,950.51
2018-04-08T07:47:57.441Z,950.48
2018-04-08T07:48:57.449Z,950.50
2018-04-08T07:49:57.491Z,950.46
2018-04-08T07:50:57.467Z,950.48
2018-04-08T07:51:57.469Z,950.46
2018-04-08T07:52:57.479Z,950.46
2018-04-08T07:53:57.489Z,950.44
2018-04-08T07:54:57.501Z,950.45
2018-04-08T07:55:57.507Z,950.46
2018-04-08T07:56:57.515Z,950.43
2018-04-08T07:57:57.525Z,950.42
2018-04-08T07:58:57.544Z,950.39
2018-04-08T07:59:57.549Z,950.39
2018-04-08T08:00:57.565Z,950.38
2018-04-08T08:01:57.563Z,950.38
2018-04-08T08:02:57.573Z,950.38
2018-04-08T08:03:57.586Z,950.37
2018-04-08T08:04:57.598Z,950.41
2018-04-08T08:05:57.600Z,950.39
2018-04-08T08:06:57.620Z,950.38
2018-04-08T08:07:57.622Z,950.38
2018-04-08T08:08:57.627Z,950.36
2018-04-08T08:09:57.640Z,950.41
2018-04-08T08:10:57.665Z,950.36
2018-04-08T08:11:57.657Z,950.35
2018-04-08T08:12:57.676Z,950.35
2018-04-08T08:13:57.678Z,950.33
2018-04-08T08:14:57.685Z,950.32
2018-04-08T08:15:57.702Z,950.33
2018-04-08T08:16:57.704Z,950.32
2018-04-08T08:17:57.714Z,950.30
2018-04-08T08:18:57.730Z,950.28
2018-04-08T08:19:57.734Z,950.24
2018-04-08T08:20:57.752Z,950.24
2018-04-08T08:21:57.757Z,950.23
2018-04-08T08:22:57.820Z,950.21
2018-04-08T08:23:57.777Z,950.24
2018-04-08T08:24:57.788Z,950.20
2018-04-08T08:25:57.794Z,950.20
2018-04-08T08:26:57.799Z,950.20
2018-04-08T08:27:57.810Z,950.20
2018-04-08T08:28:57.821Z,950.17
2018-04-08T08:29:57.833Z,950.20
2018-04-08T08:30:57.847Z,950.18
2018-04-08T08:31:57.864Z,950.16
2018-04-08T08:32:57.859Z,950.14
2018-04-08T08:33:57.871Z,950.15
2018-04-08T08:34:57.878Z,950.10
2018-04-08T08:35:57.889Z,950.09
2018-04-08T08:36:57.903Z,950.06
2018-04-08T08:37:57.907Z,950.05
2018-04-08T08:38:57.919Z,950.05
2018-04-08T08:39:57.928Z,950.03
2018-04-08T08:40:57.939Z,950.02
2018-04-08T08:41:57.948Z,950.02
2018-04-08T08:42:57.963Z,950.03
2018-04-08T08:43:57.966Z,950.05
2018-04-08T08:44:57.977Z,950.06
2018-04-08T08:45:57.986Z,950.07
2018-04-08T08:46:57.996Z,950.05
2018-04-08T08:47:58.008Z,950.04
2018-04-08T08:48:58.023Z,950.05
2018-04-08T08:49:58.025Z,950.06
2018-04-08T08:50:58.037Z,950.08
2018-04-08T08:51:58.045Z,950.13
2018-04-08T08:52:58.058Z,950.13
2018-04-08T08:53:58.067Z,950.08
2018-04-08T08:54:58.099Z,950.06
2018-04-08T08:55:58.085Z,950.09
2018-04-08T08:56:58.100Z,950.06
2018-04-08T08:57:58.114Z,950.08
2018-04-08T08:58:58.117Z,950.00
2018-04-08T08:59:58.126Z,950.00
2018-04-08T09:00:58.147Z,950.01
2018-04-08T09:01:58.147Z,950.00
2018-04-08T09:02:58.154Z,950.02
2018-04-08T09:03:58.170Z,949.98
2018-04-08T09:04:58.175Z,949.99
2018-04-08T09:05:58.190Z,950.00
2018-04-08T09:06:58.201Z,949.98
2018-04-08T09:07:58.206Z,950.03
2018-04-08T09:08:58.219Z,949.98
2018-04-08T09:09:58.231Z,950.03
2018-04-08T09:10:58.236Z,950.01
2018-04-08T09:11:58.250Z,949.99
2018-04-08T09:12:58.263Z,949.99
2018-04-08T09:13:58.270Z,950.00
2018-04-08T09:14:58.275Z,949.98
2018-04-08T09:15:58.292Z,949.95
2018-04-08T09:16:58.297Z,950.00
2018-04-08T09:17:58.309Z,949.99
2018-04-08T09:18:58.326Z,950.00
2018-04-08T09:19:58.328Z,949.95
2018-04-08T09:20:58.344Z,949.94
2018-04-08T09:21:58.351Z,949.95
2018-04-08T09:22:58.358Z,949.92
2018-04-08T09:23:58.370Z,949.94
2018-04-08T09:24:58.388Z,949.95
2018-04-08T09:25:58.390Z,949.91
2018-04-08T09:26:58.400Z,949.93
2018-04-08T09:27:58.412Z,949.89
2018-04-08T09:28:58.421Z,949.88
2018-04-08T09:29:58.438Z,949.90
2018-04-08T09:30:58.443Z,949.92
2018-04-08T09:31:58.490Z,949.85
2018-04-08T09:32:58.463Z,949.84
2018-04-08T09:33:58.477Z,949.82
2018-04-08T09:34:58.485Z,949.86
2018-04-08T09:35:58.505Z,949.81
2018-04-08T09:36:58.506Z,949.82
2018-04-08T09:37:58.517Z,949.83
2018-04-08T09:38:58.528Z,949.77
2018-04-08T09:39:58.537Z,949.78
2018-04-08T09:40:58.554Z,949.76
2018-04-08T09:41:58.569Z,949.75
2018-04-08T09:42:58.572Z,949.74
2018-04-08T09:43:58.579Z,949.80
2018-04-08T09:44:58.597Z,949.76
2018-04-08T09:45:58.600Z,949.80
2018-04-08T09:46:58.612Z,949.79
2018-04-08T09:47:58.633Z,949.78
2018-04-08T09:48:58.641Z,949.78
2018-04-08T09:49:58.644Z,949.76
2018-04-08T09:50:58.662Z,949.72
2018-04-08T09:51:58.667Z,949.70
2018-04-08T09:52:58.677Z,949.71
2018-04-08T09:53:59.374Z,949.73
2018-04-08T09:54:58.717Z,949.68
2018-04-08T09:55:58.714Z,949.62
2018-04-08T09:56:58.722Z,949.63
2018-04-08T09:57:58.737Z,949.59
2018-04-08T09:58:58.742Z,949.63
2018-04-08T09:59:58.753Z,949.61
2018-04-08T10:00:58.773Z,949.59
2018-04-08T10:01:58.782Z,949.61
2018-04-08T10:02:58.789Z,949.60
2018-04-08T10:03:58.803Z,949.62
2018-04-08T10:04:58.810Z,949.59
2018-04-08T10:05:58.821Z,949.59
2018-04-08T10:06:58.839Z,949.58
2018-04-08T10:07:58.841Z,949.59
2018-04-08T10:08:58.854Z,949.57
2018-04-08T10:09:58.869Z,949.58
2018-04-08T10:10:58.874Z,949.56
2018-04-08T10:11:58.902Z,949.57
2018-04-08T10:12:58.897Z,949.56
2018-04-08T10:13:58.908Z,949.51
2018-04-08T10:14:58.936Z,949.53
2018-04-08T10:15:58.933Z,949.52
2018-04-08T10:16:58.944Z,949.46
2018-04-08T10:17:58.954Z,949.46
2018-04-08T10:18:58.963Z,949.46
2018-04-08T10:19:58.978Z,949.45
2018-04-08T10:20:59.009Z,949.42
2018-04-08T10:21:59.001Z,949.39
2018-04-08T10:22:59.010Z,949.37
2018-04-08T10:23:59.022Z,949.40
2018-04-08T10:24:59.034Z,949.40
2018-04-08T10:25:59.047Z,949.33
2018-04-08T10:26:59.060Z,949.37
2018-04-08T10:27:59.068Z,949.34
2018-04-08T10:28:59.082Z,949.37
2018-04-08T10:29:59.090Z,949.41
2018-04-08T10:30:59.102Z,949.39
2018-04-08T10:31:59.111Z,949.38
2018-04-08T10:32:59.137Z,949.37
2018-04-08T10:33:59.143Z,949.32
2018-04-08T10:34:59.147Z,949.32
2018-04-08T10:35:59.159Z,949.34
2018-04-08T10:36:59.171Z,949.33
2018-04-08T10:37:59.185Z,949.27
2018-04-08T10:38:59.202Z,949.24
2018-04-08T10:39:59.205Z,949.22
2018-04-08T10:40:59.221Z,949.23
2018-04-08T10:41:59.229Z,949.22
2018-04-08T10:42:59.241Z,949.20
2018-04-08T10:43:59.252Z,949.19
2018-04-08T10:44:59.274Z,949.23
2018-04-08T10:45:59.275Z,949.18
2018-04-08T10:46:59.287Z,949.17
2018-04-08T10:47:59.302Z,949.18
2018-04-08T10:48:59.314Z,949.17
2018-04-08T10:49:59.326Z,949.17
2018-04-08T10:50:59.338Z,949.15
2018-04-08T10:51:59.354Z,949.17
2018-04-08T10:52:59.360Z,949.17
2018-04-08T10:53:59.383Z,949.18
2018-04-08T10:54:59.383Z,949.25
2018-04-08T10:55:59.396Z,949.39
2018-04-08T10:56:59.409Z,949.46
2018-04-08T10:57:59.430Z,949.60
2018-04-08T10:58:59.448Z,949.54
2018-04-08T10:59:59.464Z,949.55
2018-04-08T11:00:59.466Z,949.60
2018-04-08T11:01:59.481Z,949.57
2018-04-08T11:02:59.493Z,949.62
2018-04-08T11:03:59.514Z,949.61
2018-04-08T11:04:59.616Z,949.61
2018-04-08T11:05:59.546Z,949.57
2018-04-08T11:06:59.562Z,949.60
2018-04-08T11:07:59.579Z,949.61
2018-04-08T11:08:59.599Z,949.56
2018-04-08T11:09:59.622Z,949.60
2018-04-08T11:10:59.634Z,949.66
2018-04-08T11:11:59.658Z,949.68
2018-04-08T11:12:59.680Z,949.72
2018-04-08T11:13:59.695Z,949.71
2018-04-08T11:14:59.718Z,949.69
2018-04-08T11:15:59.746Z,949.68
2018-04-08T11:16:59.759Z,949.67
2018-04-08T11:17:59.778Z,949.68
2018-04-08T11:18:59.805Z,949.66
2018-04-08T11:19:59.823Z,949.63
2018-04-08T11:20:59.866Z,949.65
2018-04-08T11:21:59.873Z,949.68
2018-04-08T11:22:59.898Z,949.67
2018-04-08T11:23:59.910Z,949.68
2018-04-08T11:24:59.936Z,949.71
2018-04-08T11:25:59.967Z,949.68
2018-04-08T11:26:59.984Z,949.71
2018-04-08T11:28:00.018Z,949.71
2018-04-08T11:29:00.030Z,949.68
2018-04-08T11:30:00.053Z,949.70
2018-04-08T11:31:00.077Z,949.71
2018-04-08T11:32:00.104Z,949.67
2018-04-08T11:33:00.127Z,949.65
2018-04-08T11:34:00.161Z,949.65
2018-04-08T11:35:00.174Z,949.68
2018-04-08T11:36:00.203Z,949.69
2018-04-08T11:37:00.236Z,949.67
2018-04-08T11:38:00.250Z,949.67
2018-04-08T11:39:00.276Z,949.70
2018-04-08T11:40:00.304Z,949.66
2018-04-08T11:41:00.328Z,949.68
2018-04-08T11:42:00.361Z,949.67
2018-04-08T11:43:00.376Z,949.62
2018-04-08T11:44:00.399Z,949.63
2018-04-08T11:45:00.441Z,949.64
2018-04-08T11:46:00.486Z,949.65
2018-04-08T11:47:00.479Z,949.63
2018-04-08T11:48:00.507Z,949.60
2018-04-08T11:49:00.531Z,949.58
2018-04-08T11:50:00.559Z,949.61
2018-04-08T11:51:00.582Z,949.70
2018-04-08T11:52:00.617Z,949.75
2018-04-08T11:53:00.635Z,949.73
2018-04-08T11:54:00.661Z,949.82
2018-04-08T11:55:00.686Z,949.83
2018-04-08T11:56:00.714Z,949.81
2018-04-08T11:57:00.740Z,949.82
2018-04-08T11:58:00.772Z,949.81
2018-04-08T11:59:00.793Z,949.85
2018-04-08T12:00:00.824Z,949.89
2018-04-08T12:01:00.848Z,949.87
2018-04-08T12:02:00.917Z,949.86
2018-04-08T12:03:00.902Z,949.82
2018-04-08T12:04:00.938Z,949.83
2018-04-08T12:05:00.958Z,949.87
2018-04-08T12:06:00.985Z,949.86
2018-04-08T12:07:01.011Z,949.87
2018-04-08T12:08:01.041Z,949.89
2018-04-08T12:09:01.066Z,949.94
2018-04-08T12:10:01.103Z,949.90
2018-04-08T12:11:01.122Z,949.94
2018-04-08T12:12:01.149Z,949.90
2018-04-08T12:13:01.178Z,949.93
2018-04-08T12:14:01.203Z,949.86
2018-04-08T12:15:01.261Z,949.96
2018-04-08T12:16:01.271Z,949.95
2018-04-08T12:17:01.289Z,950.00
2018-04-08T12:18:01.320Z,949.99
2018-04-08T12:19:01.345Z,950.05
2018-04-08T12:20:01.373Z,950.07
2018-04-08T12:21:01.407Z,950.12
2018-04-08T12:22:01.450Z,950.16
2018-04-08T12:23:01.458Z,950.21
2018-04-08T12:24:01.486Z,950.34
2018-04-08T12:25:01.517Z,950.60
2018-04-08T12:26:01.548Z,950.86
2018-04-08T12:27:01.579Z,951.07
2018-04-08T12:28:01.600Z,951.23
2018-04-08T12:29:01.631Z,951.63